sensor_id;sensor_type;location;lat;lon;timestamp;P1;durP1;ratioP1;P2;durP2;ratioP2
75818;SDS011;64453;51.944;9.796;2023-09-07T00:01:34;3.17;;;2.97;;
75818;SDS011;64453;51.944;9.796;2023-09-07T00:04:01;5.50;;;3.03;;
75818;SDS011;64453;51.944;9.796;2023-09-07T00:06:31;4.10;;;3.40;;
75818;SDS011;64453;51.944;9.796;2023-09-07T00:08:59;5.73;;;3.80;;
75818;SDS011;64453;51.944;9.796;2023-09-07T00:11:26;4.53;;;3.27;;
75818;SDS011;64453;51.944;9.796;2023-09-07T00:13:53;3.67;;;3.37;;
75818;SDS011;64453;51.944;9.796;2023-09-07T00:16:21;3.80;;;3.50;;
75818;SDS011;64453;51.944;9.796;2023-09-07T00:18:48;3.07;;;2.87;;
75818;SDS011;64453;51.944;9.796;2023-09-07T00:21:15;4.60;;;3.47;;
75818;SDS011;64453;51.944;9.796;2023-09-07T00:23:42;3.40;;;3.20;;
75818;SDS011;64453;51.944;9.796;2023-09-07T00:26:09;4.90;;;3.40;;
75818;SDS011;64453;51.944;9.796;2023-09-07T00:28:37;3.60;;;3.40;;
75818;SDS011;64453;51.944;9.796;2023-09-07T00:31:04;3.30;;;3.10;;
75818;SDS011;64453;51.944;9.796;2023-09-07T00:33:32;5.30;;;3.50;;
75818;SDS011;64453;51.944;9.796;2023-09-07T00:36:01;3.03;;;2.73;;
75818;SDS011;64453;51.944;9.796;2023-09-07T00:38:28;4.93;;;3.50;;
75818;SDS011;64453;51.944;9.796;2023-09-07T00:40:55;3.47;;;3.20;;
75818;SDS011;64453;51.944;9.796;2023-09-07T00:43:22;3.10;;;2.80;;
75818;SDS011;64453;51.944;9.796;2023-09-07T00:45:48;3.80;;;3.07;;
75818;SDS011;64453;51.944;9.796;2023-09-07T00:48:16;4.50;;;3.70;;
75818;SDS011;64453;51.944;9.796;2023-09-07T00:50:44;6.43;;;3.60;;
75818;SDS011;64453;51.944;9.796;2023-09-07T00:53:11;3.97;;;3.70;;
75818;SDS011;64453;51.944;9.796;2023-09-07T00:55:39;4.47;;;4.10;;
75818;SDS011;64453;51.944;9.796;2023-09-07T00:58:06;3.97;;;3.67;;
75818;SDS011;64453;51.944;9.796;2023-09-07T01:00:33;8.10;;;3.57;;
75818;SDS011;64453;51.944;9.796;2023-09-07T01:03:04;4.20;;;3.23;;
75818;SDS011;64453;51.944;9.796;2023-09-07T01:05:32;4.07;;;3.77;;
75818;SDS011;64453;51.944;9.796;2023-09-07T01:08:10;4.63;;;3.70;;
75818;SDS011;64453;51.944;9.796;2023-09-07T01:10:42;3.67;;;3.37;;
75818;SDS011;64453;51.944;9.796;2023-09-07T01:13:09;3.23;;;3.03;;
75818;SDS011;64453;51.944;9.796;2023-09-07T01:15:36;4.00;;;3.70;;
75818;SDS011;64453;51.944;9.796;2023-09-07T01:18:04;3.60;;;3.20;;
75818;SDS011;64453;51.944;9.796;2023-09-07T01:20:33;3.50;;;3.30;;
75818;SDS011;64453;51.944;9.796;2023-09-07T01:23:03;3.57;;;3.37;;
75818;SDS011;64453;51.944;9.796;2023-09-07T01:25:31;3.50;;;3.20;;
75818;SDS011;64453;51.944;9.796;2023-09-07T01:27:58;3.73;;;3.43;;
75818;SDS011;64453;51.944;9.796;2023-09-07T01:30:25;3.70;;;3.50;;
75818;SDS011;64453;51.944;9.796;2023-09-07T01:32:53;4.20;;;3.80;;
75818;SDS011;64453;51.944;9.796;2023-09-07T01:35:20;3.77;;;3.37;;
75818;SDS011;64453;51.944;9.796;2023-09-07T01:37:48;4.20;;;3.73;;
75818;SDS011;64453;51.944;9.796;2023-09-07T01:40:16;4.30;;;3.50;;
75818;SDS011;64453;51.944;9.796;2023-09-07T01:42:43;4.30;;;3.80;;
75818;SDS011;64453;51.944;9.796;2023-09-07T01:45:10;4.17;;;3.33;;
75818;SDS011;64453;51.944;9.796;2023-09-07T01:47:37;3.53;;;3.33;;
75818;SDS011;64453;51.944;9.796;2023-09-07T01:50:04;3.93;;;3.70;;
75818;SDS011;64453;51.944;9.796;2023-09-07T01:52:32;3.60;;;3.40;;
75818;SDS011;64453;51.944;9.796;2023-09-07T01:54:59;6.37;;;4.07;;
75818;SDS011;64453;51.944;9.796;2023-09-07T01:57:27;3.40;;;3.20;;
75818;SDS011;64453;51.944;9.796;2023-09-07T01:59:54;3.67;;;3.37;;
75818;SDS011;64453;51.944;9.796;2023-09-07T02:02:21;3.33;;;3.13;;
75818;SDS011;64453;51.944;9.796;2023-09-07T02:04:48;6.80;;;3.77;;
75818;SDS011;64453;51.944;9.796;2023-09-07T02:07:15;3.73;;;3.40;;
75818;SDS011;64453;51.944;9.796;2023-09-07T02:09:42;4.43;;;3.57;;
75818;SDS011;64453;51.944;9.796;2023-09-07T02:12:09;4.37;;;3.97;;
75818;SDS011;64453;51.944;9.796;2023-09-07T02:14:38;3.50;;;3.20;;
75818;SDS011;64453;51.944;9.796;2023-09-07T02:17:05;4.60;;;4.20;;
75818;SDS011;64453;51.944;9.796;2023-09-07T02:19:32;5.33;;;3.67;;
75818;SDS011;64453;51.944;9.796;2023-09-07T02:21:58;3.83;;;3.60;;
75818;SDS011;64453;51.944;9.796;2023-09-07T02:24:25;3.67;;;3.47;;
75818;SDS011;64453;51.944;9.796;2023-09-07T02:26:52;3.73;;;3.40;;
75818;SDS011;64453;51.944;9.796;2023-09-07T02:29:19;4.03;;;3.73;;
75818;SDS011;64453;51.944;9.796;2023-09-07T02:31:47;3.43;;;3.13;;
75818;SDS011;64453;51.944;9.796;2023-09-07T02:34:14;4.43;;;4.03;;
75818;SDS011;64453;51.944;9.796;2023-09-07T02:36:41;5.73;;;3.40;;
75818;SDS011;64453;51.944;9.796;2023-09-07T02:39:08;3.53;;;3.30;;
75818;SDS011;64453;51.944;9.796;2023-09-07T02:41:36;4.60;;;3.40;;
75818;SDS011;64453;51.944;9.796;2023-09-07T02:44:04;3.97;;;3.67;;
75818;SDS011;64453;51.944;9.796;2023-09-07T02:46:31;4.87;;;3.40;;
75818;SDS011;64453;51.944;9.796;2023-09-07T02:49:00;3.70;;;3.40;;
75818;SDS011;64453;51.944;9.796;2023-09-07T02:51:27;3.90;;;3.20;;
75818;SDS011;64453;51.944;9.796;2023-09-07T02:53:54;4.20;;;3.90;;
75818;SDS011;64453;51.944;9.796;2023-09-07T02:56:22;4.87;;;3.90;;
75818;SDS011;64453;51.944;9.796;2023-09-07T02:58:50;4.90;;;4.50;;
75818;SDS011;64453;51.944;9.796;2023-09-07T03:01:17;5.00;;;4.00;;
75818;SDS011;64453;51.944;9.796;2023-09-07T03:03:46;3.97;;;3.67;;
75818;SDS011;64453;51.944;9.796;2023-09-07T03:06:15;4.40;;;4.00;;
75818;SDS011;64453;51.944;9.796;2023-09-07T03:08:42;6.33;;;3.53;;
75818;SDS011;64453;51.944;9.796;2023-09-07T03:11:10;4.60;;;4.20;;
75818;SDS011;64453;51.944;9.796;2023-09-07T03:13:37;6.60;;;3.93;;
75818;SDS011;64453;51.944;9.796;2023-09-07T03:16:05;3.50;;;3.20;;
75818;SDS011;64453;51.944;9.796;2023-09-07T03:18:32;3.97;;;3.77;;
75818;SDS011;64453;51.944;9.796;2023-09-07T03:20:59;4.07;;;3.40;;
75818;SDS011;64453;51.944;9.796;2023-09-07T03:23:29;4.77;;;3.60;;
75818;SDS011;64453;51.944;9.796;2023-09-07T03:25:57;3.70;;;3.50;;
75818;SDS011;64453;51.944;9.796;2023-09-07T03:28:24;4.60;;;4.20;;
75818;SDS011;64453;51.944;9.796;2023-09-07T03:30:51;4.57;;;3.93;;
75818;SDS011;64453;51.944;9.796;2023-09-07T03:33:20;3.70;;;3.43;;
75818;SDS011;64453;51.944;9.796;2023-09-07T03:35:47;4.80;;;4.40;;
75818;SDS011;64453;51.944;9.796;2023-09-07T03:38:13;3.80;;;3.50;;
75818;SDS011;64453;51.944;9.796;2023-09-07T03:40:42;4.97;;;4.57;;
75818;SDS011;64453;51.944;9.796;2023-09-07T03:43:09;4.40;;;4.03;;
75818;SDS011;64453;51.944;9.796;2023-09-07T03:45:36;4.50;;;4.10;;
75818;SDS011;64453;51.944;9.796;2023-09-07T03:48:03;4.63;;;4.23;;
75818;SDS011;64453;51.944;9.796;2023-09-07T03:50:31;4.17;;;3.77;;
75818;SDS011;64453;51.944;9.796;2023-09-07T03:52:58;5.43;;;4.40;;
75818;SDS011;64453;51.944;9.796;2023-09-07T03:55:25;4.10;;;3.80;;
75818;SDS011;64453;51.944;9.796;2023-09-07T03:57:54;4.40;;;4.10;;
75818;SDS011;64453;51.944;9.796;2023-09-07T04:00:21;4.63;;;4.27;;
75818;SDS011;64453;51.944;9.796;2023-09-07T04:02:49;4.20;;;3.90;;
75818;SDS011;64453;51.944;9.796;2023-09-07T04:05:16;4.20;;;3.87;;
75818;SDS011;64453;51.944;9.796;2023-09-07T04:07:43;4.50;;;4.20;;
75818;SDS011;64453;51.944;9.796;2023-09-07T04:10:11;4.30;;;3.90;;
75818;SDS011;64453;51.944;9.796;2023-09-07T04:12:38;5.00;;;4.63;;
75818;SDS011;64453;51.944;9.796;2023-09-07T04:15:07;3.80;;;3.50;;
75818;SDS011;64453;51.944;9.796;2023-09-07T04:17:35;4.20;;;3.90;;
75818;SDS011;64453;51.944;9.796;2023-09-07T04:20:06;4.30;;;4.00;;
75818;SDS011;64453;51.944;9.796;2023-09-07T04:22:38;3.80;;;3.50;;
75818;SDS011;64453;51.944;9.796;2023-09-07T04:25:05;3.70;;;3.50;;
75818;SDS011;64453;51.944;9.796;2023-09-07T04:27:32;4.50;;;4.20;;
75818;SDS011;64453;51.944;9.796;2023-09-07T04:29:59;3.57;;;3.27;;
75818;SDS011;64453;51.944;9.796;2023-09-07T04:32:28;3.43;;;3.23;;
75818;SDS011;64453;51.944;9.796;2023-09-07T04:34:55;4.60;;;3.90;;
75818;SDS011;64453;51.944;9.796;2023-09-07T04:37:24;3.73;;;3.50;;
75818;SDS011;64453;51.944;9.796;2023-09-07T04:39:51;3.33;;;3.13;;
75818;SDS011;64453;51.944;9.796;2023-09-07T04:42:19;4.23;;;3.93;;
75818;SDS011;64453;51.944;9.796;2023-09-07T04:44:46;4.30;;;3.87;;
75818;SDS011;64453;51.944;9.796;2023-09-07T04:47:13;4.17;;;3.90;;
75818;SDS011;64453;51.944;9.796;2023-09-07T04:49:42;4.43;;;4.13;;
75818;SDS011;64453;51.944;9.796;2023-09-07T04:52:08;4.53;;;4.13;;
75818;SDS011;64453;51.944;9.796;2023-09-07T04:54:35;4.27;;;3.90;;
75818;SDS011;64453;51.944;9.796;2023-09-07T04:57:02;3.50;;;3.27;;
75818;SDS011;64453;51.944;9.796;2023-09-07T04:59:30;3.70;;;3.40;;
75818;SDS011;64453;51.944;9.796;2023-09-07T05:01:59;6.03;;;4.33;;
75818;SDS011;64453;51.944;9.796;2023-09-07T05:04:27;4.93;;;4.53;;
75818;SDS011;64453;51.944;9.796;2023-09-07T05:06:57;7.17;;;3.93;;
75818;SDS011;64453;51.944;9.796;2023-09-07T05:09:24;7.90;;;4.97;;
75818;SDS011;64453;51.944;9.796;2023-09-07T05:11:51;7.63;;;3.93;;
75818;SDS011;64453;51.944;9.796;2023-09-07T05:14:18;4.50;;;4.10;;
75818;SDS011;64453;51.944;9.796;2023-09-07T05:16:45;9.80;;;5.50;;
75818;SDS011;64453;51.944;9.796;2023-09-07T05:19:12;4.27;;;3.97;;
75818;SDS011;64453;51.944;9.796;2023-09-07T05:21:40;5.00;;;4.30;;
75818;SDS011;64453;51.944;9.796;2023-09-07T05:24:08;4.60;;;4.10;;
75818;SDS011;64453;51.944;9.796;2023-09-07T05:26:35;5.80;;;4.30;;
75818;SDS011;64453;51.944;9.796;2023-09-07T05:29:02;4.30;;;4.00;;
75818;SDS011;64453;51.944;9.796;2023-09-07T05:31:29;5.27;;;4.53;;
75818;SDS011;64453;51.944;9.796;2023-09-07T05:33:56;4.73;;;4.43;;
75818;SDS011;64453;51.944;9.796;2023-09-07T05:36:22;5.23;;;4.83;;
75818;SDS011;64453;51.944;9.796;2023-09-07T05:38:49;5.50;;;4.50;;
75818;SDS011;64453;51.944;9.796;2023-09-07T05:41:18;5.30;;;4.90;;
75818;SDS011;64453;51.944;9.796;2023-09-07T05:43:45;4.97;;;4.57;;
75818;SDS011;64453;51.944;9.796;2023-09-07T05:46:12;4.90;;;4.50;;
75818;SDS011;64453;51.944;9.796;2023-09-07T05:48:38;4.90;;;4.40;;
75818;SDS011;64453;51.944;9.796;2023-09-07T05:51:05;5.10;;;4.73;;
75818;SDS011;64453;51.944;9.796;2023-09-07T05:53:32;15.30;;;5.10;;
75818;SDS011;64453;51.944;9.796;2023-09-07T05:55:59;5.50;;;5.00;;
75818;SDS011;64453;51.944;9.796;2023-09-07T05:58:27;5.77;;;5.27;;
75818;SDS011;64453;51.944;9.796;2023-09-07T06:00:54;7.50;;;5.40;;
75818;SDS011;64453;51.944;9.796;2023-09-07T06:03:21;5.57;;;4.97;;
75818;SDS011;64453;51.944;9.796;2023-09-07T06:05:48;6.30;;;5.70;;
75818;SDS011;64453;51.944;9.796;2023-09-07T06:08:15;7.50;;;5.80;;
75818;SDS011;64453;51.944;9.796;2023-09-07T06:10:42;5.80;;;5.30;;
75818;SDS011;64453;51.944;9.796;2023-09-07T06:13:09;6.50;;;5.90;;
75818;SDS011;64453;51.944;9.796;2023-09-07T06:15:37;5.93;;;5.37;;
75818;SDS011;64453;51.944;9.796;2023-09-07T06:18:04;6.60;;;6.00;;
75818;SDS011;64453;51.944;9.796;2023-09-07T06:20:31;6.60;;;6.10;;
75818;SDS011;64453;51.944;9.796;2023-09-07T06:22:59;6.30;;;5.67;;
75818;SDS011;64453;51.944;9.796;2023-09-07T06:25:26;9.87;;;5.63;;
75818;SDS011;64453;51.944;9.796;2023-09-07T06:27:53;6.57;;;5.97;;
75818;SDS011;64453;51.944;9.796;2023-09-07T06:30:20;6.13;;;5.63;;
75818;SDS011;64453;51.944;9.796;2023-09-07T06:32:48;6.10;;;5.60;;
75818;SDS011;64453;51.944;9.796;2023-09-07T06:35:16;7.00;;;6.33;;
75818;SDS011;64453;51.944;9.796;2023-09-07T06:37:44;7.90;;;6.40;;
75818;SDS011;64453;51.944;9.796;2023-09-07T06:40:11;6.47;;;5.87;;
75818;SDS011;64453;51.944;9.796;2023-09-07T06:42:40;6.23;;;5.70;;
75818;SDS011;64453;51.944;9.796;2023-09-07T06:45:07;11.40;;;6.20;;
75818;SDS011;64453;51.944;9.796;2023-09-07T06:47:35;6.43;;;5.90;;
75818;SDS011;64453;51.944;9.796;2023-09-07T06:50:04;6.50;;;5.70;;
75818;SDS011;64453;51.944;9.796;2023-09-07T06:52:32;6.03;;;5.57;;
75818;SDS011;64453;51.944;9.796;2023-09-07T06:54:59;6.83;;;6.20;;
75818;SDS011;64453;51.944;9.796;2023-09-07T06:57:26;7.07;;;6.47;;
75818;SDS011;64453;51.944;9.796;2023-09-07T06:59:53;7.43;;;5.60;;
75818;SDS011;64453;51.944;9.796;2023-09-07T07:02:20;6.67;;;6.07;;
75818;SDS011;64453;51.944;9.796;2023-09-07T07:04:47;6.07;;;5.33;;
75818;SDS011;64453;51.944;9.796;2023-09-07T07:07:16;6.33;;;5.73;;
75818;SDS011;64453;51.944;9.796;2023-09-07T07:09:43;5.80;;;5.37;;
75818;SDS011;64453;51.944;9.796;2023-09-07T07:12:10;5.90;;;5.40;;
75818;SDS011;64453;51.944;9.796;2023-09-07T07:14:37;13.20;;;5.50;;
75818;SDS011;64453;51.944;9.796;2023-09-07T07:17:04;5.67;;;5.27;;
75818;SDS011;64453;51.944;9.796;2023-09-07T07:19:31;6.27;;;5.67;;
75818;SDS011;64453;51.944;9.796;2023-09-07T07:21:58;6.07;;;5.53;;
75818;SDS011;64453;51.944;9.796;2023-09-07T07:24:26;6.17;;;5.67;;
75818;SDS011;64453;51.944;9.796;2023-09-07T07:26:53;6.20;;;5.70;;
75818;SDS011;64453;51.944;9.796;2023-09-07T07:29:20;9.60;;;5.87;;
75818;SDS011;64453;51.944;9.796;2023-09-07T07:31:47;6.43;;;5.90;;
75818;SDS011;64453;51.944;9.796;2023-09-07T07:34:14;7.17;;;6.47;;
75818;SDS011;64453;51.944;9.796;2023-09-07T07:36:41;7.17;;;6.47;;
75818;SDS011;64453;51.944;9.796;2023-09-07T07:39:08;9.97;;;6.93;;
75818;SDS011;64453;51.944;9.796;2023-09-07T07:41:36;6.17;;;5.67;;
75818;SDS011;64453;51.944;9.796;2023-09-07T07:44:03;8.40;;;7.60;;
75818;SDS011;64453;51.944;9.796;2023-09-07T07:46:30;6.53;;;5.87;;
75818;SDS011;64453;51.944;9.796;2023-09-07T07:48:57;10.20;;;6.37;;
75818;SDS011;64453;51.944;9.796;2023-09-07T07:51:24;8.40;;;6.10;;
75818;SDS011;64453;51.944;9.796;2023-09-07T07:53:53;6.03;;;5.53;;
75818;SDS011;64453;51.944;9.796;2023-09-07T07:56:21;6.93;;;6.23;;
75818;SDS011;64453;51.944;9.796;2023-09-07T07:58:51;6.30;;;5.77;;
75818;SDS011;64453;51.944;9.796;2023-09-07T08:01:19;7.33;;;6.73;;
75818;SDS011;64453;51.944;9.796;2023-09-07T08:03:46;8.97;;;6.23;;
75818;SDS011;64453;51.944;9.796;2023-09-07T08:06:13;6.70;;;6.20;;
75818;SDS011;64453;51.944;9.796;2023-09-07T08:08:40;6.50;;;5.80;;
75818;SDS011;64453;51.944;9.796;2023-09-07T08:11:07;6.33;;;5.70;;
75818;SDS011;64453;51.944;9.796;2023-09-07T08:13:35;6.30;;;5.70;;
75818;SDS011;64453;51.944;9.796;2023-09-07T08:16:03;5.87;;;5.27;;
75818;SDS011;64453;51.944;9.796;2023-09-07T08:18:32;6.37;;;5.87;;
75818;SDS011;64453;51.944;9.796;2023-09-07T08:20:59;6.77;;;6.10;;
75818;SDS011;64453;51.944;9.796;2023-09-07T08:23:27;6.40;;;5.80;;
75818;SDS011;64453;51.944;9.796;2023-09-07T08:25:54;6.60;;;5.77;;
75818;SDS011;64453;51.944;9.796;2023-09-07T08:28:21;6.27;;;5.67;;
75818;SDS011;64453;51.944;9.796;2023-09-07T08:30:49;5.97;;;5.37;;
75818;SDS011;64453;51.944;9.796;2023-09-07T08:33:19;5.70;;;5.23;;
75818;SDS011;64453;51.944;9.796;2023-09-07T08:35:51;5.90;;;5.40;;
75818;SDS011;64453;51.944;9.796;2023-09-07T08:38:20;5.20;;;4.80;;
75818;SDS011;64453;51.944;9.796;2023-09-07T08:40:51;6.73;;;5.60;;
75818;SDS011;64453;51.944;9.796;2023-09-07T08:43:19;7.33;;;5.70;;
75818;SDS011;64453;51.944;9.796;2023-09-07T08:45:48;6.90;;;6.30;;
75818;SDS011;64453;51.944;9.796;2023-09-07T08:48:26;6.17;;;5.43;;
75818;SDS011;64453;51.944;9.796;2023-09-07T08:50:56;5.97;;;5.47;;
75818;SDS011;64453;51.944;9.796;2023-09-07T08:53:22;5.17;;;4.87;;
75818;SDS011;64453;51.944;9.796;2023-09-07T08:55:51;5.10;;;4.70;;
75818;SDS011;64453;51.944;9.796;2023-09-07T08:58:18;5.87;;;5.40;;
75818;SDS011;64453;51.944;9.796;2023-09-07T09:00:45;5.50;;;5.00;;
75818;SDS011;64453;51.944;9.796;2023-09-07T09:03:12;5.50;;;5.03;;
75818;SDS011;64453;51.944;9.796;2023-09-07T09:05:40;5.13;;;4.73;;
75818;SDS011;64453;51.944;9.796;2023-09-07T09:08:07;4.97;;;4.57;;
75818;SDS011;64453;51.944;9.796;2023-09-07T09:10:34;5.87;;;4.70;;
75818;SDS011;64453;51.944;9.796;2023-09-07T09:13:04;5.40;;;4.37;;
75818;SDS011;64453;51.944;9.796;2023-09-07T09:15:31;5.40;;;5.00;;
75818;SDS011;64453;51.944;9.796;2023-09-07T09:17:58;5.60;;;5.10;;
75818;SDS011;64453;51.944;9.796;2023-09-07T09:20:37;4.70;;;4.40;;
75818;SDS011;64453;51.944;9.796;2023-09-07T09:23:06;6.87;;;4.90;;
75818;SDS011;64453;51.944;9.796;2023-09-07T09:25:33;4.90;;;4.50;;
75818;SDS011;64453;51.944;9.796;2023-09-07T09:28:00;5.47;;;4.97;;
75818;SDS011;64453;51.944;9.796;2023-09-07T09:30:27;5.30;;;4.90;;
75818;SDS011;64453;51.944;9.796;2023-09-07T09:32:55;4.47;;;4.13;;
75818;SDS011;64453;51.944;9.796;2023-09-07T09:35:21;4.53;;;4.20;;
75818;SDS011;64453;51.944;9.796;2023-09-07T09:37:49;4.90;;;4.50;;
75818;SDS011;64453;51.944;9.796;2023-09-07T09:40:18;4.90;;;4.50;;
75818;SDS011;64453;51.944;9.796;2023-09-07T09:42:45;4.80;;;4.40;;
75818;SDS011;64453;51.944;9.796;2023-09-07T09:45:12;14.43;;;4.90;;
75818;SDS011;64453;51.944;9.796;2023-09-07T09:47:39;5.70;;;5.20;;
75818;SDS011;64453;51.944;9.796;2023-09-07T09:50:08;5.40;;;5.00;;
75818;SDS011;64453;51.944;9.796;2023-09-07T09:52:37;4.93;;;4.53;;
75818;SDS011;64453;51.944;9.796;2023-09-07T09:55:05;4.60;;;4.30;;
75818;SDS011;64453;51.944;9.796;2023-09-07T09:57:35;5.37;;;4.97;;
75818;SDS011;64453;51.944;9.796;2023-09-07T10:00:03;4.63;;;4.30;;
75818;SDS011;64453;51.944;9.796;2023-09-07T10:02:49;5.20;;;4.80;;
75818;SDS011;64453;51.944;9.796;2023-09-07T10:05:22;4.73;;;4.40;;
75818;SDS011;64453;51.944;9.796;2023-09-07T10:07:50;4.53;;;4.23;;
75818;SDS011;64453;51.944;9.796;2023-09-07T10:10:18;4.70;;;4.40;;
75818;SDS011;64453;51.944;9.796;2023-09-07T10:12:50;4.37;;;3.97;;
75818;SDS011;64453;51.944;9.796;2023-09-07T10:15:20;4.13;;;3.85;;
75818;SDS011;64453;51.944;9.796;2023-09-07T10:17:48;4.13;;;3.80;;
75818;SDS011;64453;51.944;9.796;2023-09-07T10:20:18;4.53;;;4.22;;
75818;SDS011;64453;51.944;9.796;2023-09-07T10:22:48;4.50;;;4.20;;
75818;SDS011;64453;51.944;9.796;2023-09-07T10:25:21;4.45;;;4.15;;
75818;SDS011;64453;51.944;9.796;2023-09-07T10:27:50;5.30;;;4.90;;
75818;SDS011;64453;51.944;9.796;2023-09-07T10:30:17;4.60;;;4.20;;
75818;SDS011;64453;51.944;9.796;2023-09-07T10:32:48;4.57;;;4.18;;
75818;SDS011;64453;51.944;9.796;2023-09-07T10:35:16;4.10;;;3.83;;
75818;SDS011;64453;51.944;9.796;2023-09-07T10:37:47;4.00;;;3.70;;
75818;SDS011;64453;51.944;9.796;2023-09-07T10:40:18;3.80;;;3.50;;
75818;SDS011;64453;51.944;9.796;2023-09-07T10:42:46;3.83;;;3.53;;
75818;SDS011;64453;51.944;9.796;2023-09-07T10:45:16;4.05;;;3.75;;
75818;SDS011;64453;51.944;9.796;2023-09-07T10:47:43;3.67;;;3.42;;
75818;SDS011;64453;51.944;9.796;2023-09-07T10:50:11;3.70;;;3.50;;
75818;SDS011;64453;51.944;9.796;2023-09-07T10:52:40;3.95;;;3.72;;
75818;SDS011;64453;51.944;9.796;2023-09-07T10:55:07;4.22;;;3.92;;
75818;SDS011;64453;51.944;9.796;2023-09-07T10:57:42;5.95;;;3.90;;
75818;SDS011;64453;51.944;9.796;2023-09-07T11:00:11;3.80;;;3.50;;
75818;SDS011;64453;51.944;9.796;2023-09-07T11:02:42;4.38;;;4.07;;
75818;SDS011;64453;51.944;9.796;2023-09-07T11:05:09;4.07;;;3.78;;
75818;SDS011;64453;51.944;9.796;2023-09-07T11:07:36;4.13;;;3.83;;
75818;SDS011;64453;51.944;9.796;2023-09-07T11:10:06;6.65;;;4.10;;
75818;SDS011;64453;51.944;9.796;2023-09-07T11:12:37;4.00;;;3.80;;
75818;SDS011;64453;51.944;9.796;2023-09-07T11:15:08;3.80;;;3.60;;
75818;SDS011;64453;51.944;9.796;2023-09-07T11:17:38;4.18;;;3.88;;
75818;SDS011;64453;51.944;9.796;2023-09-07T11:20:06;4.85;;;4.18;;
75818;SDS011;64453;51.944;9.796;2023-09-07T11:22:35;4.10;;;3.72;;
75818;SDS011;64453;51.944;9.796;2023-09-07T11:25:04;3.78;;;3.58;;
75818;SDS011;64453;51.944;9.796;2023-09-07T11:27:31;4.10;;;3.90;;
75818;SDS011;64453;51.944;9.796;2023-09-07T11:29:58;4.50;;;4.10;;
75818;SDS011;64453;51.944;9.796;2023-09-07T11:32:33;4.55;;;4.20;;
75818;SDS011;64453;51.944;9.796;2023-09-07T11:35:02;4.90;;;4.40;;
75818;SDS011;64453;51.944;9.796;2023-09-07T11:37:32;4.35;;;4.00;;
75818;SDS011;64453;51.944;9.796;2023-09-07T11:40:00;4.40;;;4.10;;
75818;SDS011;64453;51.944;9.796;2023-09-07T11:42:29;4.80;;;3.95;;
75818;SDS011;64453;51.944;9.796;2023-09-07T11:44:56;5.20;;;4.22;;
75818;SDS011;64453;51.944;9.796;2023-09-07T11:47:23;6.95;;;4.35;;
75818;SDS011;64453;51.944;9.796;2023-09-07T11:49:50;4.20;;;3.88;;
75818;SDS011;64453;51.944;9.796;2023-09-07T11:52:19;5.13;;;4.43;;
75818;SDS011;64453;51.944;9.796;2023-09-07T11:54:46;4.20;;;3.90;;
75818;SDS011;64453;51.944;9.796;2023-09-07T11:57:13;4.40;;;4.10;;
75818;SDS011;64453;51.944;9.796;2023-09-07T11:59:41;4.32;;;4.03;;
75818;SDS011;64453;51.944;9.796;2023-09-07T12:02:08;4.20;;;3.90;;
75818;SDS011;64453;51.944;9.796;2023-09-07T12:04:36;4.07;;;3.83;;
75818;SDS011;64453;51.944;9.796;2023-09-07T12:07:03;3.78;;;3.47;;
75818;SDS011;64453;51.944;9.796;2023-09-07T12:09:31;4.75;;;4.45;;
75818;SDS011;64453;51.944;9.796;2023-09-07T12:11:58;4.18;;;3.85;;
75818;SDS011;64453;51.944;9.796;2023-09-07T12:14:25;4.75;;;4.35;;
75818;SDS011;64453;51.944;9.796;2023-09-07T12:16:52;4.80;;;4.15;;
75818;SDS011;64453;51.944;9.796;2023-09-07T12:19:19;4.63;;;4.20;;
75818;SDS011;64453;51.944;9.796;2023-09-07T12:21:46;4.10;;;3.80;;
75818;SDS011;64453;51.944;9.796;2023-09-07T12:24:13;4.95;;;4.55;;
75818;SDS011;64453;51.944;9.796;2023-09-07T12:26:41;4.57;;;4.28;;
75818;SDS011;64453;51.944;9.796;2023-09-07T12:29:08;4.85;;;4.45;;
75818;SDS011;64453;51.944;9.796;2023-09-07T12:31:35;5.78;;;4.38;;
75818;SDS011;64453;51.944;9.796;2023-09-07T12:34:02;4.50;;;4.20;;
75818;SDS011;64453;51.944;9.796;2023-09-07T12:36:30;3.90;;;3.70;;
75818;SDS011;64453;51.944;9.796;2023-09-07T12:38:56;4.47;;;4.18;;
75818;SDS011;64453;51.944;9.796;2023-09-07T12:41:26;4.18;;;3.88;;
75818;SDS011;64453;51.944;9.796;2023-09-07T12:43:55;4.60;;;4.28;;
75818;SDS011;64453;51.944;9.796;2023-09-07T12:46:21;4.90;;;4.40;;
75818;SDS011;64453;51.944;9.796;2023-09-07T12:48:48;5.43;;;4.40;;
75818;SDS011;64453;51.944;9.796;2023-09-07T12:51:15;4.07;;;3.80;;
75818;SDS011;64453;51.944;9.796;2023-09-07T12:53:42;4.50;;;4.10;;
75818;SDS011;64453;51.944;9.796;2023-09-07T12:56:09;4.75;;;4.35;;
75818;SDS011;64453;51.944;9.796;2023-09-07T12:58:37;4.32;;;4.03;;
75818;SDS011;64453;51.944;9.796;2023-09-07T13:01:05;4.57;;;4.13;;
75818;SDS011;64453;51.944;9.796;2023-09-07T13:03:35;4.15;;;3.85;;
75818;SDS011;64453;51.944;9.796;2023-09-07T13:06:02;4.97;;;4.47;;
75818;SDS011;64453;51.944;9.796;2023-09-07T13:08:29;6.28;;;5.50;;
75818;SDS011;64453;51.944;9.796;2023-09-07T13:10:56;5.10;;;4.53;;
75818;SDS011;64453;51.944;9.796;2023-09-07T13:13:23;4.93;;;4.43;;
75818;SDS011;64453;51.944;9.796;2023-09-07T13:15:53;4.75;;;4.28;;
75818;SDS011;64453;51.944;9.796;2023-09-07T13:18:22;5.55;;;5.13;;
75818;SDS011;64453;51.944;9.796;2023-09-07T13:20:49;4.70;;;4.40;;
75818;SDS011;64453;51.944;9.796;2023-09-07T13:23:17;4.50;;;4.20;;
75818;SDS011;64453;51.944;9.796;2023-09-07T13:25:44;4.53;;;4.22;;
75818;SDS011;64453;51.944;9.796;2023-09-07T13:28:11;4.75;;;4.40;;
75818;SDS011;64453;51.944;9.796;2023-09-07T13:30:38;5.95;;;4.18;;
75818;SDS011;64453;51.944;9.796;2023-09-07T13:33:05;4.22;;;3.83;;
75818;SDS011;64453;51.944;9.796;2023-09-07T13:35:34;5.07;;;4.68;;
75818;SDS011;64453;51.944;9.796;2023-09-07T13:38:01;4.85;;;4.28;;
75818;SDS011;64453;51.944;9.796;2023-09-07T13:40:28;4.07;;;3.78;;
75818;SDS011;64453;51.944;9.796;2023-09-07T13:42:55;4.90;;;4.40;;
75818;SDS011;64453;51.944;9.796;2023-09-07T13:45:22;4.18;;;3.90;;
75818;SDS011;64453;51.944;9.796;2023-09-07T13:47:49;4.40;;;4.10;;
75818;SDS011;64453;51.944;9.796;2023-09-07T13:50:16;4.30;;;4.00;;
75818;SDS011;64453;51.944;9.796;2023-09-07T13:52:44;5.15;;;3.70;;
75818;SDS011;64453;51.944;9.796;2023-09-07T13:55:11;4.28;;;3.97;;
75818;SDS011;64453;51.944;9.796;2023-09-07T13:57:38;4.63;;;4.32;;
75818;SDS011;64453;51.944;9.796;2023-09-07T14:00:05;4.13;;;3.80;;
75818;SDS011;64453;51.944;9.796;2023-09-07T14:02:33;4.40;;;4.13;;
75818;SDS011;64453;51.944;9.796;2023-09-07T14:05:00;7.07;;;4.13;;
75818;SDS011;64453;51.944;9.796;2023-09-07T14:07:27;5.47;;;5.03;;
75818;SDS011;64453;51.944;9.796;2023-09-07T14:09:56;4.75;;;4.45;;
75818;SDS011;64453;51.944;9.796;2023-09-07T14:12:23;4.30;;;4.00;;
75818;SDS011;64453;51.944;9.796;2023-09-07T14:14:50;4.13;;;3.90;;
75818;SDS011;64453;51.944;9.796;2023-09-07T14:17:17;4.60;;;4.30;;
75818;SDS011;64453;51.944;9.796;2023-09-07T14:19:44;4.38;;;4.07;;
75818;SDS011;64453;51.944;9.796;2023-09-07T14:22:11;3.97;;;3.70;;
75818;SDS011;64453;51.944;9.796;2023-09-07T14:24:38;3.95;;;3.65;;
75818;SDS011;64453;51.944;9.796;2023-09-07T14:27:07;3.97;;;3.72;;
75818;SDS011;64453;51.944;9.796;2023-09-07T14:29:34;4.20;;;3.88;;
75818;SDS011;64453;51.944;9.796;2023-09-07T14:32:01;4.15;;;3.85;;
75818;SDS011;64453;51.944;9.796;2023-09-07T14:34:29;3.72;;;3.42;;
75818;SDS011;64453;51.944;9.796;2023-09-07T14:36:56;3.75;;;3.55;;
75818;SDS011;64453;51.944;9.796;2023-09-07T14:39:23;4.25;;;3.95;;
75818;SDS011;64453;51.944;9.796;2023-09-07T14:41:50;3.85;;;3.55;;
75818;SDS011;64453;51.944;9.796;2023-09-07T14:44:19;4.45;;;4.15;;
75818;SDS011;64453;51.944;9.796;2023-09-07T14:46:47;4.05;;;3.85;;
75818;SDS011;64453;51.944;9.796;2023-09-07T14:49:15;3.90;;;3.60;;
75818;SDS011;64453;51.944;9.796;2023-09-07T14:51:43;3.65;;;3.45;;